Time;durP1;ratioP1;P1;durP2;ratioP2;P2;SDS_P1;SDS_P2;PMS_P1;PMS_P2;Temp;Humidity;BMP_temperature;BMP_pressure;BME280_temperature;BME280_humidity;BME280_pressure;Samples;Min_cycle;Max_cycle;Signal;HPM_P1;HPM_P2
2022/03/23 00:04:34;;;;;;;;;;;;;;;21.82;26.06;96773.94;10443147;28;1851;-55
2022/03/23 00:09:35;;;;;;;;;;;;;;;21.80;26.04;96768.09;10432605;28;1926;-55
2022/03/23 00:14:35;;;;;;;;;;;;;;;21.80;25.88;96768.88;10435339;28;1853;-54
2022/03/23 00:19:36;;;;;;;;;;;;;;;21.84;25.89;96763.94;10432195;28;1995;-53
2022/03/23 00:24:36;;;;;;;;;;;;;;;21.79;25.99;96766.50;10445822;28;1812;-53
2022/03/23 00:29:37;;;;;;;;;;;;;;;21.81;25.93;96767.88;10440155;28;1903;-53
2022/03/23 00:34:38;;;;;;;;;;;;;;;21.82;25.83;96763.41;10438514;28;1787;-54
2022/03/23 00:39:38;;;;;;;;;;;;;;;21.83;25.84;96760.50;10441346;28;1834;-52
2022/03/23 00:44:38;;;;;;;;;;;;;;;21.82;25.83;96753.59;10438481;28;1881;-52
2022/03/23 00:49:39;;;;;;;;;;;;;;;21.82;25.81;96758.88;10434021;28;1914;-55
2022/03/23 00:54:39;;;;;;;;;;;;;;;21.82;25.64;96766.03;10438140;28;1913;-55
2022/03/23 00:59:39;;;;;;;;;;;;;;;21.82;25.55;96760.75;10431850;28;1774;-52
2022/03/23 01:04:40;;;;;;;;;;;;;;;21.81;25.73;96759.13;10435390;28;1994;-51
2022/03/23 01:09:40;;;;;;;;;;;;;;;21.79;25.66;96754.09;10435991;28;2001;-55
2022/03/23 01:14:41;;;;;;;;;;;;;;;21.79;25.56;96753.31;10433425;28;1772;-54
2022/03/23 01:19:41;;;;;;;;;;;;;;;21.79;25.52;96761.22;10437559;28;1860;-54
2022/03/23 01:24:42;;;;;;;;;;;;;;;21.78;25.36;96763.06;10431236;28;1830;-53
2022/03/23 01:29:43;;;;;;;;;;;;;;;21.79;25.49;96761.22;10439165;28;1969;-52
2022/03/23 01:34:43;;;;;;;;;;;;;;;21.80;25.45;96760.97;10425050;28;2305;-55
2022/03/23 01:39:43;;;;;;;;;;;;;;;21.78;25.63;96759.66;10437446;28;1931;-53
2022/03/23 01:44:44;;;;;;;;;;;;;;;21.79;25.53;96754.09;10433492;28;1937;-55
2022/03/23 01:49:49;;;;;;;;;;;;;;;21.81;25.39;96753.84;10449293;28;1977;-53
2022/03/23 01:54:49;;;;;;;;;;;;;;;21.80;25.43;96752.28;10415800;28;1929;-55
2022/03/23 01:59:49;;;;;;;;;;;;;;;21.81;25.43;96743.28;10428862;28;1985;-53
2022/03/23 02:04:50;;;;;;;;;;;;;;;21.82;25.22;96745.69;10428269;28;2103;-53
2022/03/23 02:09:50;;;;;;;;;;;;;;;21.76;25.55;96745.91;10430893;28;1922;-55
2022/03/23 02:14:50;;;;;;;;;;;;;;;21.78;25.17;96746.47;10431312;28;1898;-56
2022/03/23 02:19:51;;;;;;;;;;;;;;;21.82;25.15;96747.56;10426294;28;2019;-55
2022/03/23 02:24:52;;;;;;;;;;;;;;;21.80;25.33;96739.06;10427604;28;2055;-55
2022/03/23 02:29:53;;;;;;;;;;;;;;;21.78;25.30;96731.38;10435600;28;1924;-56
2022/03/23 02:34:54;;;;;;;;;;;;;;;21.78;25.26;96738.53;10434233;28;1935;-52
2022/03/23 02:39:54;;;;;;;;;;;;;;;21.80;25.05;96747.00;10429623;28;1983;-55
2022/03/23 02:44:55;;;;;;;;;;;;;;;21.77;25.13;96734.28;10429247;28;1907;-54
2022/03/23 02:49:55;;;;;;;;;;;;;;;21.81;25.04;96740.66;10427342;28;1945;-53
2022/03/23 03:05:38;;;;;;;;;;;;;;;21.77;25.18;96745.66;10430549;28;1959;-56
2022/03/23 03:10:39;;;;;;;;;;;;;;;21.80;24.91;96741.72;10429004;28;2006;-55
2022/03/23 03:15:40;;;;;;;;;;;;;;;21.77;25.33;96736.94;10428524;28;2071;-54
2022/03/23 03:20:40;;;;;;;;;;;;;;;21.80;24.87;96742.50;10424883;28;1811;-56
2022/03/23 03:25:41;;;;;;;;;;;;;;;21.78;25.13;96735.91;10424463;28;1834;-54
2022/03/23 03:30:41;;;;;;;;;;;;;;;21.79;25.10;96740.13;10428369;28;1918;-55
2022/03/23 03:35:41;;;;;;;;;;;;;;;21.76;25.18;96744.06;10431893;28;2054;-55
2022/03/23 03:40:43;;;;;;;;;;;;;;;21.79;24.80;96755.94;10430232;28;1987;-53
2022/03/23 03:45:45;;;;;;;;;;;;;;;21.77;24.83;96750.13;10435710;28;1889;-55
2022/03/23 03:50:45;;;;;;;;;;;;;;;21.79;24.96;96766.50;10426505;28;2010;-55
2022/03/23 03:55:45;;;;;;;;;;;;;;;21.79;24.99;96756.75;10436012;28;1814;-54
2022/03/23 04:00:46;;;;;;;;;;;;;;;21.79;24.84;96763.88;10429701;28;2022;-55
2022/03/23 04:05:47;;;;;;;;;;;;;;;21.78;25.15;96757.00;10442612;28;1862;-56
2022/03/23 04:10:47;;;;;;;;;;;;;;;21.78;25.04;96751.72;10430557;28;1969;-54
2022/03/23 04:15:48;;;;;;;;;;;;;;;21.78;24.82;96754.38;10444460;28;1830;-54
2022/03/23 04:20:49;;;;;;;;;;;;;;;21.80;24.94;96753.03;10439770;28;2018;-55
2022/03/23 04:25:50;;;;;;;;;;;;;;;21.79;24.89;96764.66;10433159;28;1878;-52
2022/03/23 04:30:50;;;;;;;;;;;;;;;21.78;24.77;96762.28;10433241;28;2204;-55
2022/03/23 04:35:51;;;;;;;;;;;;;;;21.81;24.89;96769.69;10430505;28;1959;-54
2022/03/23 04:40:52;;;;;;;;;;;;;;;21.80;24.81;96770.75;10440319;28;2034;-53
2022/03/23 04:45:52;;;;;;;;;;;;;;;21.78;24.76;96772.84;10435139;28;1831;-54
2022/03/23 04:50:52;;;;;;;;;;;;;;;21.78;24.76;96778.91;10435819;28;1922;-54
2022/03/23 04:55:53;;;;;;;;;;;;;;;21.78;24.70;96788.69;10433295;28;1768;-55
2022/03/23 05:00:54;;;;;;;;;;;;;;;21.78;24.95;96793.97;10433836;28;1830;-53
2022/03/23 05:05:54;;;;;;;;;;;;;;;21.77;24.81;96795.81;10435750;28;1987;-54
2022/03/23 05:10:54;;;;;;;;;;;;;;;21.82;24.91;96790.56;10438221;28;1918;-55
2022/03/23 05:15:55;;;;;;;;;;;;;;;21.80;24.58;96797.13;10436923;28;1889;-56
2022/03/23 05:20:55;;;;;;;;;;;;;;;21.79;24.60;96798.19;10434802;28;1866;-55
2022/03/23 05:25:55;;;;;;;;;;;;;;;21.78;24.64;96801.88;10433650;28;1834;-55
2022/03/23 05:30:56;;;;;;;;;;;;;;;21.79;24.84;96801.63;10432231;28;1910;-52
2022/03/23 05:35:57;;;;;;;;;;;;;;;21.76;24.90;96810.03;10424813;28;1881;-54
2022/03/23 05:40:57;;;;;;;;;;;;;;;21.76;24.75;96803.97;10425458;28;1880;-55
2022/03/23 05:45:57;;;;;;;;;;;;;;;21.80;24.69;96807.69;10430719;28;1762;-56
2022/03/23 05:50:58;;;;;;;;;;;;;;;21.78;24.61;96809.81;10440536;28;1914;-55
2022/03/23 05:55:58;;;;;;;;;;;;;;;21.77;24.75;96808.19;10432680;28;1502;-54
2022/03/23 06:00:59;;;;;;;;;;;;;;;21.80;24.76;96813.75;10437954;28;1648;-56
2022/03/23 06:05:59;;;;;;;;;;;;;;;21.77;24.72;96819.56;10435795;28;1459;-56
2022/03/23 06:11:00;;;;;;;;;;;;;;;21.76;24.61;96817.19;10426356;28;1985;-54
2022/03/23 06:16:00;;;;;;;;;;;;;;;21.75;24.78;96821.66;10433221;28;1859;-56
2022/03/23 06:21:02;;;;;;;;;;;;;;;21.78;24.77;96825.63;10427674;28;1798;-56
2022/03/23 06:26:03;;;;;;;;;;;;;;;21.77;24.67;96829.31;10430770;28;1915;-53
2022/03/23 06:31:05;;;;;;;;;;;;;;;21.77;24.74;96835.38;10440660;28;2001;-55
2022/03/23 06:36:05;;;;;;;;;;;;;;;21.76;24.67;96836.41;10446756;28;1849;-55
2022/03/23 06:41:07;;;;;;;;;;;;;;;21.75;24.75;96842.75;10429656;28;1865;-53
2022/03/23 06:46:07;;;;;;;;;;;;;;;21.73;24.64;96844.06;10431617;28;1714;-52
2022/03/23 06:51:08;;;;;;;;;;;;;;;21.78;24.37;96850.16;10427360;28;1882;-55
2022/03/23 06:56:08;;;;;;;;;;;;;;;21.76;24.35;96836.41;10431620;28;1807;-54
2022/03/23 07:01:09;;;;;;;;;;;;;;;21.76;24.41;96840.94;10435751;28;1800;-55
2022/03/23 07:06:10;;;;;;;;;;;;;;;21.76;24.72;96836.41;10418608;28;1950;-56
2022/03/23 07:11:10;;;;;;;;;;;;;;;21.77;25.59;96839.88;10428177;28;1979;-53
2022/03/23 07:16:10;;;;;;;;;;;;;;;21.81;26.08;96849.69;10421934;28;1874;-55
2022/03/23 07:21:11;;;;;;;;;;;;;;;21.84;26.26;96856.31;10431833;28;1877;-55
2022/03/23 07:26:11;;;;;;;;;;;;;;;21.85;26.63;96855.25;10431305;28;1798;-56
2022/03/23 07:31:13;;;;;;;;;;;;;;;21.86;26.76;96859.50;10420937;28;1934;-56
2022/03/23 07:36:13;;;;;;;;;;;;;;;21.86;26.93;96864.78;10428741;28;1806;-57
2022/03/23 07:41:14;;;;;;;;;;;;;;;21.81;27.05;96865.53;10430654;28;1798;-53
2022/03/23 07:46:14;;;;;;;;;;;;;;;21.82;27.13;96859.19;10445568;28;1936;-57
2022/03/23 07:51:15;;;;;;;;;;;;;;;21.49;25.68;96866.59;10429302;28;1914;-53
2022/03/23 07:56:15;;;;;;;;;;;;;;;21.24;24.95;96869.00;10422678;28;1836;-55
2022/03/23 08:01:16;;;;;;;;;;;;;;;21.07;25.08;96863.84;10428747;28;1848;-56
2022/03/23 08:06:16;;;;;;;;;;;;;;;21.01;24.82;96870.91;10446082;28;1963;-56
2022/03/23 08:11:17;;;;;;;;;;;;;;;20.92;24.35;96880.28;10430521;28;1914;-62
2022/03/23 08:16:17;;;;;;;;;;;;;;;20.82;24.09;96879.38;10424818;28;1841;-56
2022/03/23 08:21:19;;;;;;;;;;;;;;;20.81;24.18;96888.34;10428061;28;1798;-54
2022/03/23 08:26:19;;;;;;;;;;;;;;;21.20;24.65;96883.75;10423559;28;1884;-52
2022/03/23 08:31:21;;;;;;;;;;;;;;;21.44;24.64;96879.72;10422268;28;1910;-56
2022/03/23 08:36:21;;;;;;;;;;;;;;;21.61;24.81;96888.31;10429727;28;1911;-56
2022/03/23 08:41:22;;;;;;;;;;;;;;;21.61;24.84;96894.41;10430332;28;1880;-51
2022/03/23 08:46:22;;;;;;;;;;;;;;;21.67;25.00;96892.56;10431525;28;1830;-55
2022/03/23 08:51:22;;;;;;;;;;;;;;;21.71;25.03;96891.03;10439294;28;1906;-54
2022/03/23 08:56:23;;;;;;;;;;;;;;;21.78;25.16;96884.47;10435205;28;1759;-55
2022/03/23 09:01:23;;;;;;;;;;;;;;;21.78;24.98;96895.03;10431086;28;1980;-55
2022/03/23 09:06:23;;;;;;;;;;;;;;;21.82;24.94;96884.81;10434327;28;1904;-56
2022/03/23 09:11:24;;;;;;;;;;;;;;;21.82;25.29;96890.09;10448957;28;1965;-56
2022/03/23 09:16:24;;;;;;;;;;;;;;;21.85;25.16;96884.28;10438347;28;1827;-53
2022/03/23 09:21:25;;;;;;;;;;;;;;;21.87;25.03;96890.09;10434625;28;1826;-55
2022/03/23 09:26:25;;;;;;;;;;;;;;;21.91;24.98;96887.78;10433805;28;1821;-54
2022/03/23 09:31:25;;;;;;;;;;;;;;;21.88;25.03;96889.06;10441328;28;1905;-55
2022/03/23 09:41:45;;;;;;;;;;;;;;;21.90;25.14;96884.34;10447516;28;2160;-54
2022/03/23 09:46:46;;;;;;;;;;;;;;;21.86;25.21;96875.34;10431699;28;1852;-56
2022/03/23 09:51:46;;;;;;;;;;;;;;;21.86;25.54;96876.09;10444327;28;1981;-55
2022/03/23 09:56:46;;;;;;;;;;;;;;;21.84;25.13;96866.88;10425785;28;1941;-55
2022/03/23 10:01:47;;;;;;;;;;;;;;;21.84;25.30;96870.28;10429176;28;1820;-56
2022/03/23 10:06:59;;;;;;;;;;;;;;;21.85;25.27;96868.44;10431611;28;2613;-54
2022/03/23 10:12:18;;;;;;;;;;;;;;;21.86;25.36;96867.41;10427455;28;1909;-53
2022/03/23 10:17:37;;;;;;;;;;;;;;;21.83;25.62;96866.06;10425851;28;1814;-54
2022/03/23 10:22:44;;;;;;;;;;;;;;;21.82;25.64;96855.78;10441733;28;2098;-53
2022/03/23 10:27:45;;;;;;;;;;;;;;;21.76;25.76;96854.13;10425838;28;2159;-55
2022/03/23 10:32:48;;;;;;;;;;;;;;;21.80;25.80;96855.19;10434828;28;1973;-56
2022/03/23 10:37:48;;;;;;;;;;;;;;;21.74;25.73;96854.34;10443767;28;2000;-53
2022/03/23 10:42:49;;;;;;;;;;;;;;;21.82;25.49;96848.63;10433179;28;1817;-56
2022/03/23 10:47:50;;;;;;;;;;;;;;;21.80;25.53;96845.41;10432755;28;1851;-57
2022/03/23 10:52:51;;;;;;;;;;;;;;;21.80;25.79;96848.06;10430556;28;2015;-55
2022/03/23 10:57:52;;;;;;;;;;;;;;;21.76;25.75;96835.66;10430808;28;1782;-55
2022/03/23 11:02:52;;;;;;;;;;;;;;;21.76;25.99;96823.22;10423076;28;1839;-56
2022/03/23 11:07:53;;;;;;;;;;;;;;;21.78;26.03;96823.00;10430824;28;1880;-55
2022/03/23 11:18:18;;;;;;;;;;;;;;;21.88;27.72;96809.88;10434234;28;1827;-57
2022/03/23 11:23:45;;;;;;;;;;;;;;;21.93;27.85;96804.59;10437041;28;1857;-55
2022/03/23 11:28:46;;;;;;;;;;;;;;;21.94;27.55;96798.28;10424032;28;1990;-54
2022/03/23 11:33:50;;;;;;;;;;;;;;;21.90;27.71;96794.56;10429478;28;1833;-54
2022/03/23 11:38:52;;;;;;;;;;;;;;;21.85;27.49;96800.63;10426142;28;1856;-55
2022/03/23 11:43:52;;;;;;;;;;;;;;;21.85;27.28;96794.53;10434353;28;1775;-51
2022/03/23 11:48:53;;;;;;;;;;;;;;;21.81;27.60;96796.06;10422408;28;1985;-56
2022/03/23 11:53:57;;;;;;;;;;;;;;;21.80;27.39;96789.22;10409232;28;1832;-56
2022/03/23 11:59:11;;;;;;;;;;;;;;;21.77;27.32;96781.81;10430765;28;1858;-55
2022/03/23 12:04:12;;;;;;;;;;;;;;;21.75;27.18;96776.78;10440323;28;1979;-54
2022/03/23 12:09:32;;;;;;;;;;;;;;;21.77;27.53;96776.53;10428361;28;2043;-53
2022/03/23 12:14:34;;;;;;;;;;;;;;;21.71;27.42;96767.00;10428960;28;1905;-54
2022/03/23 12:19:53;;;;;;;;;;;;;;;21.76;27.18;96764.41;10426672;28;2053;-54
2022/03/23 12:24:55;;;;;;;;;;;;;;;21.76;27.27;96757.25;10446031;28;1897;-54
2022/03/23 12:29:56;;;;;;;;;;;;;;;21.76;27.28;96748.56;10439840;28;1981;-54
2022/03/23 12:34:56;;;;;;;;;;;;;;;21.80;27.26;96742.50;10441010;28;2060;-54
2022/03/23 12:39:56;;;;;;;;;;;;;;;21.79;27.21;96729.56;10437650;28;1880;-54
2022/03/23 12:45:00;;;;;;;;;;;;;;;21.80;27.22;96726.66;10440216;28;1848;-54
2022/03/23 13:00:44;;;;;;;;;;;;;;;21.86;27.43;96722.25;10449750;22;2337;-49
2022/03/23 13:05:59;;;;;;;;;;;;;;;21.84;27.44;96713.78;10483220;28;1878;-48
2022/03/23 13:11:01;;;;;;;;;;;;;;;21.85;27.27;96715.34;10456255;28;1914;-48
2022/03/23 13:16:02;;;;;;;;;;;;;;;21.86;27.34;96704.53;10425565;28;2520;-53
2022/03/23 13:21:03;;;;;;;;;;;;;;;21.86;27.42;96701.88;10435587;28;1897;-50
2022/03/23 13:26:04;;;;;;;;;;;;;;;21.91;27.21;96698.47;10410519;28;2193;-50
2022/03/23 13:31:07;;;;;;;;;;;;;;;21.85;27.28;96695.03;10423910;28;1965;-50
2022/03/23 13:36:09;;;;;;;;;;;;;;;21.85;27.27;96694.25;10421063;28;1806;-52
2022/03/23 13:46:29;;;;;;;;;;;;;;;21.86;27.24;96680.78;10410557;28;1843;-48
2022/03/23 13:51:40;;;;;;;;;;;;;;;21.85;27.17;96667.84;10406335;28;1914;-49
2022/03/23 13:56:41;;;;;;;;;;;;;;;21.87;27.00;96676.31;10419874;28;1902;-47
2022/03/23 14:01:46;;;;;;;;;;;;;;;21.74;21.40;96660.94;10431530;28;1887;-47
2022/03/23 14:06:48;;;;;;;;;;;;;;;21.71;22.81;96664.06;10436464;28;1826;-47
2022/03/23 14:12:05;;;;;;;;;;;;;;;21.70;23.12;96665.16;10419492;28;1969;-50
2022/03/23 14:17:23;;;;;;;;;;;;;;;21.68;23.07;96656.66;10406864;28;1874;-49
2022/03/23 14:22:24;;;;;;;;;;;;;;;21.66;22.58;96654.28;10414240;28;1962;-47
2022/03/23 14:27:25;;;;;;;;;;;;;;;21.59;22.49;96658.22;10431960;28;1850;-52
2022/03/23 14:32:26;;;;;;;;;;;;;;;21.60;22.60;96644.78;10410763;28;1979;-52
2022/03/23 14:37:35;;;;;;;;;;;;;;;21.57;22.96;96640.03;10403054;28;1851;-48
2022/03/23 14:42:36;;;;;;;;;;;;;;;21.59;23.00;96629.22;10428834;28;1964;-52
2022/03/23 14:47:47;;;;;;;;;;;;;;;21.59;23.39;96626.56;10406291;28;1832;-50
2022/03/23 14:52:49;;;;;;;;;;;;;;;21.60;23.20;96623.66;10410562;28;1971;-48
2022/03/23 14:57:50;;;;;;;;;;;;;;;21.57;23.63;96620.75;10410323;28;2240;-52
2022/03/23 15:02:51;;;;;;;;;;;;;;;21.55;23.60;96620.22;10422093;28;1906;-51
2022/03/23 15:13:15;;;;;;;;;;;;;;;21.56;23.89;96616.53;10392643;28;1905;-52
2022/03/23 15:18:17;;;;;;;;;;;;;;;21.53;23.95;96609.13;10403639;28;1845;-50
2022/03/23 15:23:18;;;;;;;;;;;;;;;21.55;24.05;96605.19;10427978;28;1845;-51
2022/03/23 15:28:20;;;;;;;;;;;;;;;21.54;24.25;96605.44;10425523;28;1853;-50
2022/03/23 15:33:21;;;;;;;;;;;;;;;21.51;24.43;96603.31;10424764;28;1910;-53
2022/03/23 15:38:22;;;;;;;;;;;;;;;21.48;24.36;96602.00;10422308;28;1776;-49
2022/03/23 15:43:23;;;;;;;;;;;;;;;21.51;24.32;96598.84;10421660;28;1828;-48
2022/03/23 15:48:27;;;;;;;;;;;;;;;21.45;24.37;96599.84;10417276;28;1953;-52
2022/03/23 15:53:28;;;;;;;;;;;;;;;21.48;24.45;96599.34;10422158;28;1929;-49
2022/03/23 15:58:28;;;;;;;;;;;;;;;21.48;24.24;96593.28;10421912;28;1768;-48
2022/03/23 16:03:30;;;;;;;;;;;;;;;21.45;24.40;96596.44;10409915;28;1775;-48
2022/03/23 16:08:30;;;;;;;;;;;;;;;21.49;24.59;96600.16;10434151;28;1859;-51
2022/03/23 16:13:31;;;;;;;;;;;;;;;21.44;24.72;96600.13;10411465;28;1911;-53
2022/03/23 16:18:33;;;;;;;;;;;;;;;21.44;24.95;96602.75;10435714;28;1813;-49
2022/03/23 16:23:34;;;;;;;;;;;;;;;21.44;25.00;96600.94;10411982;28;1830;-51
2022/03/23 16:28:36;;;;;;;;;;;;;;;21.45;25.16;96604.38;10412771;28;1810;-51
2022/03/23 16:33:37;;;;;;;;;;;;;;;21.42;25.23;96604.88;10433650;28;1902;-47
2022/03/23 16:38:37;;;;;;;;;;;;;;;21.44;25.18;96593.00;10433972;28;1833;-54
2022/03/23 16:43:38;;;;;;;;;;;;;;;21.44;25.43;96605.41;10428565;28;2024;-52
2022/03/23 16:48:39;;;;;;;;;;;;;;;21.40;25.45;96606.97;10427971;28;2014;-51
2022/03/23 16:53:40;;;;;;;;;;;;;;;21.38;25.74;96603.78;10411700;28;1979;-48
2022/03/23 16:58:40;;;;;;;;;;;;;;;21.40;25.51;96618.31;10432633;28;1813;-48
2022/03/23 17:14:20;;;;;;;;;;;;;;;21.32;26.12;96610.09;10416880;28;1806;-50
2022/03/23 17:19:20;;;;;;;;;;;;;;;21.33;26.10;96617.75;10435663;28;1794;-49
2022/03/23 17:24:21;;;;;;;;;;;;;;;21.31;26.11;96619.84;10431797;28;1791;-52
2022/03/23 17:29:22;;;;;;;;;;;;;;;21.29;25.97;96615.91;10431693;28;1977;-49
2022/03/23 17:34:22;;;;;;;;;;;;;;;21.28;26.23;96615.09;10411429;28;1858;-51
2022/03/23 17:39:24;;;;;;;;;;;;;;;21.35;26.06;96622.78;10418944;28;1790;-49
2022/03/23 17:44:24;;;;;;;;;;;;;;;21.29;25.81;96623.81;10399561;28;2097;-49
2022/03/23 17:49:25;;;;;;;;;;;;;;;21.29;25.60;96624.59;10431142;28;1981;-52
2022/03/23 17:54:25;;;;;;;;;;;;;;;21.29;25.13;96627.22;10424416;28;1883;-51
2022/03/23 17:59:25;;;;;;;;;;;;;;;21.29;25.46;96632.50;10432226;28;2045;-50
2022/03/23 18:04:27;;;;;;;;;;;;;;;21.33;25.49;96632.81;10424516;28;1890;-50
2022/03/23 18:09:27;;;;;;;;;;;;;;;21.28;25.91;96633.56;10439316;28;2037;-54
2022/03/23 18:14:28;;;;;;;;;;;;;;;21.27;26.00;96633.81;10412108;28;1860;-50
2022/03/23 18:19:29;;;;;;;;;;;;;;;21.32;26.09;96641.75;10438906;28;1865;-53
2022/03/23 18:24:29;;;;;;;;;;;;;;;21.29;26.06;96639.63;10433160;28;1864;-50
2022/03/23 18:29:30;;;;;;;;;;;;;;;21.30;26.13;96644.66;10431931;28;2009;-54
2022/03/23 18:34:30;;;;;;;;;;;;;;;21.41;26.47;96641.00;10426126;28;2090;-50
2022/03/23 18:39:31;;;;;;;;;;;;;;;21.32;26.54;96642.56;10433391;28;1849;-53
2022/03/23 18:44:31;;;;;;;;;;;;;;;21.45;26.87;96642.06;10410124;28;1864;-45
2022/03/23 18:49:33;;;;;;;;;;;;;;;21.47;26.75;96653.19;10416028;28;1918;-57
2022/03/23 18:54:33;;;;;;;;;;;;;;;21.60;26.43;96654.53;10411686;28;1469;-50
2022/03/23 18:59:34;;;;;;;;;;;;;;;21.66;26.33;96646.38;10412135;28;1676;-48
2022/03/23 19:04:34;;;;;;;;;;;;;;;21.81;26.30;96661.47;10407371;28;1568;-52
2022/03/23 19:09:34;;;;;;;;;;;;;;;21.94;26.11;96654.94;10416682;28;1969;-47
2022/03/23 19:14:35;;;;;;;;;;;;;;;22.06;26.03;96653.66;10406383;28;1675;-49
2022/03/23 19:19:36;;;;;;;;;;;;;;;22.15;25.86;96659.22;10407752;28;1526;-49
2022/03/23 19:24:37;;;;;;;;;;;;;;;22.22;25.80;96665.81;10432268;28;1475;-51
2022/03/23 19:29:37;;;;;;;;;;;;;;;22.29;25.68;96662.94;10427684;28;1973;-54
2022/03/23 19:34:38;;;;;;;;;;;;;;;22.35;25.60;96672.44;10430290;28;1543;-52
2022/03/23 19:39:38;;;;;;;;;;;;;;;22.42;25.72;96665.84;10419170;28;1430;-46
2022/03/23 19:44:41;;;;;;;;;;;;;;;22.42;25.71;96667.72;10426188;28;1715;-50
2022/03/23 19:49:41;;;;;;;;;;;;;;;22.40;25.67;96664.53;10411148;28;1914;-46
2022/03/23 19:54:42;;;;;;;;;;;;;;;22.45;25.69;96664.53;10422678;28;1633;-48
2022/03/23 19:59:42;;;;;;;;;;;;;;;22.44;25.55;96670.88;10435911;28;1445;-54
2022/03/23 20:04:43;;;;;;;;;;;;;;;22.44;25.84;96671.66;10426300;28;1523;-48
2022/03/23 20:09:44;;;;;;;;;;;;;;;22.46;25.59;96669.53;10407484;28;1971;-56
2022/03/23 20:14:45;;;;;;;;;;;;;;;22.57;25.66;96671.16;10424164;28;1466;-64
2022/03/23 20:19:45;;;;;;;;;;;;;;;22.60;25.51;96670.66;10397788;28;1452;-62
2022/03/23 20:24:45;;;;;;;;;;;;;;;22.64;25.58;96673.56;10417598;28;1859;-64
2022/03/23 20:29:45;;;;;;;;;;;;;;;22.63;25.53;96667.47;10403406;28;1910;-68
2022/03/23 20:34:46;;;;;;;;;;;;;;;22.63;25.56;96664.84;10420563;23;2404;-71
2022/03/23 20:39:46;;;;;;;;;;;;;;;22.65;25.78;96672.50;10393922;28;1573;-73
2022/03/23 20:44:47;;;;;;;;;;;;;;;22.63;25.58;96671.97;10423263;28;1756;-76
2022/03/23 20:49:50;;;;;;;;;;;;;;;22.62;25.46;96684.41;10388203;28;1926;-73
2022/03/23 20:54:50;;;;;;;;;;;;;;;22.67;25.49;96674.88;10414954;28;1565;-75
2022/03/23 20:59:52;;;;;;;;;;;;;;;22.75;25.61;96666.44;10408889;28;1493;-74
2022/03/23 21:04:52;;;;;;;;;;;;;;;22.79;25.43;96670.94;10405394;28;1802;-73
2022/03/23 21:09:53;;;;;;;;;;;;;;;22.84;25.24;96670.91;10410383;28;1918;-74
2022/03/23 21:14:53;;;;;;;;;;;;;;;22.86;25.04;96668.00;10403045;28;1834;-73
2022/03/23 21:19:54;;;;;;;;;;;;;;;22.88;24.97;96673.81;10435384;28;1887;-73
2022/03/23 21:24:55;;;;;;;;;;;;;;;22.87;25.09;96665.09;10422899;28;1786;-74
2022/03/23 21:29:56;;;;;;;;;;;;;;;22.88;25.09;96673.81;10405698;28;1910;-74
2022/03/23 21:34:56;;;;;;;;;;;;;;;22.87;25.20;96669.59;10408759;28;1787;-74
2022/03/23 21:39:58;;;;;;;;;;;;;;;22.87;25.21;96664.31;10409698;28;1833;-74
2022/03/23 21:44:58;;;;;;;;;;;;;;;22.86;24.89;96665.34;10438576;28;1892;-72
2022/03/23 21:49:58;;;;;;;;;;;;;;;22.86;25.00;96665.34;10385772;28;1909;-73
2022/03/23 21:54:59;;;;;;;;;;;;;;;22.84;24.92;96665.63;10424592;28;1888;-71
2022/03/23 22:00:00;;;;;;;;;;;;;;;22.83;24.82;96663.25;10419409;28;1746;-74
2022/03/23 22:05:00;;;;;;;;;;;;;;;22.84;25.01;96670.91;10432672;28;1825;-73
2022/03/23 22:10:00;;;;;;;;;;;;;;;22.82;24.98;96667.72;10387966;28;1910;-73
2022/03/23 22:15:02;;;;;;;;;;;;;;;22.76;25.42;96662.72;10394677;28;1844;-74
2022/03/23 22:20:03;;;;;;;;;;;;;;;22.69;26.22;96662.19;10409869;28;1843;-74
2022/03/23 22:25:04;;;;;;;;;;;;;;;22.75;26.59;96659.28;10404528;28;1796;-74
2022/03/23 22:30:05;;;;;;;;;;;;;;;22.77;26.69;96659.03;10403350;28;2125;-74
2022/03/23 22:35:06;;;;;;;;;;;;;;;22.78;26.57;96656.09;10416056;28;1878;-73
2022/03/23 22:40:07;;;;;;;;;;;;;;;22.80;26.62;96659.28;10436885;28;2023;-75
2022/03/23 22:45:08;;;;;;;;;;;;;;;22.82;26.87;96653.72;10419417;28;1785;-74
2022/03/23 22:50:09;;;;;;;;;;;;;;;22.85;26.60;96650.56;10410996;28;1971;-73
2022/03/23 22:55:10;;;;;;;;;;;;;;;22.88;26.85;96650.00;10405311;28;1853;-71
2022/03/23 23:00:17;;;;;;;;;;;;;;;22.91;26.65;96654.78;10405170;28;1879;-73
2022/03/23 23:05:18;;;;;;;;;;;;;;;22.93;26.79;96645.53;10421858;28;1999;-72
2022/03/23 23:10:19;;;;;;;;;;;;;;;22.97;26.81;96648.44;10400761;28;1914;-74
2022/03/23 23:15:19;;;;;;;;;;;;;;;23.01;26.41;96638.91;10407782;28;1793;-75
2022/03/23 23:20:21;;;;;;;;;;;;;;;23.06;26.47;96642.31;10390654;28;2091;-74
2022/03/23 23:25:22;;;;;;;;;;;;;;;23.08;26.75;96639.41;10384051;28;1863;-75
2022/03/23 23:30:22;;;;;;;;;;;;;;;23.12;26.65;96638.59;10402310;28;1910;-74
2022/03/23 23:35:23;;;;;;;;;;;;;;;23.15;26.64;96639.91;10422211;28;1765;-74
2022/03/23 23:40:23;;;;;;;;;;;;;;;23.18;26.75;96649.97;10389440;28;2030;-74
2022/03/23 23:45:23;;;;;;;;;;;;;;;23.22;26.80;96635.94;10429343;28;1770;-73
2022/03/23 23:50:25;;;;;;;;;;;;;;;23.25;26.52;96634.59;10398694;28;1906;-74
2022/03/23 23:55:25;;;;;;;;;;;;;;;23.27;26.55;96640.41;10440680;28;1963;-74
